Station: Ballera  

  Atmospheric Gas Attenuation - ITU Rec 676-11   ----------------- dB/100km -----------------
Date Time Temp RH % AH g/m3 Dew Point Wind Direction Speed kph Gust kph Barometer mB Rainfall Since 9am 24GHz 47GHz 76GHz 122GHz 134GHz 241GHz
06/05 15:30 23 30 6.17 4.5 22 32 1018.5 0 14.1 20.2 27.5 71.5 60.7 207.4
06/05 15:20 23 30 6.17 4.5 19 24 1018.5 0 14.1 20.2 27.5 71.5 60.7 207.4
06/05 15:10 23.4 29 6.1 4.4 22 26 1018.5 0 13.9 20.0 27.1 70.6 59.7 203.8
06/05 15:00 22.9 30 6.13 4.4 17 26 1018.6 0 14.0 20.2 27.4 71.3 60.4 206.2
06/05 14:50 23.1 30 6.2 4.6 13 15 1018.7 0 14.1 20.2 27.5 71.7 61.0 208.3
06/05 14:40 23.6 29 6.17 4.5 24 30 1018.7 0 14.1 20.1 27.3 71.0 60.3 205.9
06/05 14:30 22.9 28 5.72 3.4 17 26 1018.8 0 13.2 19.7 26.1 67.8 56.0 190.9
06/05 14:20 23.3 29 6.06 4.3 17 20 1018.9 0 13.8 20.0 27.0 70.4 59.4 202.6
06/05 14:10 22.6 30 6.03 4.2 13 19 1018.9 0 13.8 20.1 27.2 70.7 59.5 203.2
06/05 14:00 22.7 30 6.06 4.2 19 30 1019.1 0 13.9 20.2 27.2 70.9 59.8 204.1
06/05 13:50 22.7 29 5.86 3.8 22 24 1019.1 0 13.5 19.9 26.6 69.2 57.7 196.6
06/05 13:40 22.7 30 6.06 4.2 19 20 1019.2 0 13.9 20.2 27.2 70.9 59.8 204.1
06/05 13:30 22.6 31 6.23 4.6 15 32 1019.2 0 14.2 20.4 27.8 72.5 61.7 210.8
06/05 13:20 22.8 31 6.3 4.8 20 26 1019.4 0 14.4 20.5 28.0 72.9 62.3 213.0
06/05 13:10 23.1 31 6.41 5.1 26 32 1019.6 0 14.6 20.5 28.2 73.6 63.3 216.4
06/05 13:00 22.4 32 6.35 4.9 17 28 1019.8 0 14.5 20.6 28.3 73.7 63.2 216.0
06/05 12:50 22.8 32 6.5 5.3 17 19 1019.9 0 14.8 20.7 28.7 74.7 64.5 220.7
06/05 12:40 21.7 33 6.29 4.7 13 17 1020 0 14.4 20.7 28.3 73.9 63.1 215.6
06/05 12:30 22.8 33 6.71 5.7 20 30 1020.2 0 15.2 21.0 29.4 76.6 66.8 228.8
06/05 12:20 22.3 34 6.71 5.7 24 28 1020.3 0 15.2 21.2 29.5 77.1 67.2 230.2
06/05 12:10 22.4 34 6.75 5.8 30 32 1020.4 0 15.3 21.2 29.6 77.3 67.6 231.5
06/05 12:00 21.9 35 6.75 5.8 20 32 1020.6 0 15.3 21.3 29.8 77.8 68.0 233.0
06/05 11:50 21.8 36 6.91 6.1 26 30 1020.7 0 15.7 21.6 30.4 79.4 69.9 239.5
06/05 11:40 21.6 36 6.83 5.9 17 24 1020.9 0 15.5 21.5 30.2 78.9 69.2 237.0
06/05 11:30 21.7 37 7.06 6.4 24 37 1020.9 0 16.0 21.8 31.0 80.9 71.7 245.8
06/05 11:20 21.5 37 6.98 6.2 22 32 1021.1 0 15.8 21.7 30.8 80.3 71.0 243.3
06/05 11:00 21.1 37 6.82 5.9 26 33 1021.4 0 15.5 21.6 30.4 79.3 69.6 238.2
06/05 09:40 18.7 48 7.68 7.5 24 30 1021.7 0 17.4 23.4 34.4 89.9 81.8 281.0
06/05 09:30 18.2 50 7.77 7.6 22 28 1021.6 0 17.6 23.7 34.9 91.4 83.4 286.6
06/05 09:20 17.9 52 7.94 7.9 22 24 1021.6 0 18.0 24.0 35.7 93.4 85.8 294.9
06/05 09:10 17.5 52 7.75 7.5 22 26 1021.6 0 17.6 23.9 35.1 92.0 83.9 288.2
06/05 09:00 17.2 55 8.05 8.1 20 24 1021.6 0 18.3 24.4 36.4 95.3 88.0 302.3
06/05 08:50 16.5 57 8 8 20 24 1021.5 0 18.2 24.5 36.5 95.6 88.1 302.7
06/05 08:40 15.8 61 8.21 8.3 22 24 1021.5 0 18.7 25.0 37.7 98.6 91.6 314.7
06/05 08:30 15.5 62 8.2 8.3 20 24 1021.4 0 18.6 25.1 37.7 98.9 91.8 315.4
06/05 08:20 15.2 64 8.31 8.4 20 22 1021.4 0 18.9 25.3 38.3 100.4 93.5 321.6
06/05 08:10 15 65 8.33 8.5 19 20 1021.4 0 18.9 25.4 38.5 100.9 94.0 323.3
06/05 08:00 14.6 67 8.38 8.5 15 19 1021.4 0 19.1 25.6 38.9 101.9 95.2 327.2
06/05 07:50 14 70 8.44 8.6 13 15 1021.2 0 19.2 25.9 39.4 103.3 96.7 332.4
06/05 07:40 13.6 72 8.47 8.7 15 17 1021 0 19.3 26.0 39.7 104.1 97.6 335.5
06/05 07:30 12.9 75 8.45 8.6 13 17 1020.9 0 19.3 26.2 40.0 104.8 98.2 337.5
06/05 07:20 12.5 77 8.47 8.6 13 17 1020.7 0 19.4 26.3 40.3 105.6 98.9 340.1
06/05 07:10 11.9 79 8.37 8.4 13 15 1020.7 0 19.2 26.4 40.2 105.3 98.4 338.0
06/05 07:00 11.7 80 8.37 8.4 11 15 1020.6 0 19.2 26.4 40.3 105.5 98.6 338.8
06/05 06:50 11.8 79 8.32 8.3 11 13 1020.6 0 19.1 26.3 40.0 104.9 97.8 336.0
06/05 06:40 11.9 78 8.26 8.2 15 17 1020.4 0 18.9 26.2 39.7 104.0 96.8 332.7
06/05 06:30 12.1 78 8.37 8.4 15 17 1020.3 0 19.2 26.3 40.0 105.0 98.1 337.0
06/05 06:20 12.1 77 8.26 8.2 13 15 1020.3 0 18.9 26.1 39.6 103.8 96.6 331.8
06/05 06:10 12 77 8.21 8.1 15 15 1020.2 0 18.8 26.0 39.4 103.3 96.0 329.9
06/05 06:00 11.9 78 8.26 8.2 15 17 1020.1 0 18.9 26.2 39.7 104.0 96.8 332.6
06/05 05:50 12 78 8.31 8.3 13 15 1020.1 0 19.0 26.2 39.8 104.4 97.4 334.6
06/05 05:40 11.9 79 8.37 8.4 15 15 1020 0 19.2 26.3 40.1 105.2 98.3 337.8
06/05 05:30 11.6 80 8.32 8.3 11 13 1020 0 19.1 26.3 40.1 105.1 98.0 336.7
06/05 05:20 11.5 79 8.16 8 11 11 1020 0 18.8 26.1 39.5 103.4 96.0 329.6
06/05 05:10 11.7 78 8.16 8 9 11 1019.9 0 18.7 26.0 39.4 103.2 95.7 328.7
06/05 05:00 12 78 8.31 8.3 11 13 1019.9 0 19.0 26.2 39.8 104.4 97.3 334.5
06/05 04:50 12.1 77 8.26 8.2 13 13 1019.8 0 18.9 26.1 39.6 103.7 96.5 331.7
06/05 04:40 12.1 77 8.26 8.2 13 15 1019.7 0 18.9 26.1 39.6 103.7 96.5 331.7
06/05 04:30 12.3 76 8.25 8.2 15 17 1019.7 0 18.9 26.0 39.4 103.3 96.2 330.4
06/05 04:20 12.3 76 8.25 8.2 15 15 1019.6 0 18.9 26.0 39.4 103.3 96.1 330.3
06/05 04:10 12.3 75 8.14 8 15 17 1019.6 0 18.7 25.8 39.0 102.1 94.7 325.2
06/05 04:00 12.3 75 8.14 8 13 15 1019.6 0 18.7 25.8 39.0 102.1 94.7 325.2
06/05 03:50 12.3 75 8.14 8 13 13 1019.6 0 18.7 25.8 39.0 102.1 94.7 325.2
06/05 03:40 12.4 74 8.09 7.9 13 15 1019.6 0 18.6 25.7 38.7 101.5 93.9 322.5
06/05 03:30 12.6 73 8.08 7.9 13 15 1019.5 0 18.5 25.6 38.6 101.1 93.5 321.1
06/05 03:20 12.8 72 8.07 7.9 13 15 1019.5 0 18.5 25.6 38.4 100.7 93.1 319.9
06/05 03:10 13 71 8.05 7.9 15 15 1019.5 0 18.4 25.5 38.3 100.3 92.6 318.1
06/05 03:00 13.3 70 8.09 8 15 17 1019.5 0 18.5 25.4 38.3 100.3 92.8 318.8
06/05 02:50 13.4 70 8.14 8 17 17 1019.5 0 18.6 25.5 38.4 100.7 93.3 320.7
06/05 02:40 13.5 69 8.07 7.9 17 17 1019.6 0 18.5 25.4 38.1 99.8 92.3 317.1
06/05 02:30 13.6 68 8 7.8 15 19 1019.7 0 18.3 25.2 37.8 99.0 91.3 313.5
06/05 02:20 13.7 67 7.93 7.7 15 17 1019.7 0 18.2 25.1 37.5 98.1 90.3 309.9
06/05 02:10 13.8 66 7.86 7.6 15 15 1019.9 0 18.0 25.0 37.2 97.3 89.3 306.4
06/05 02:00 14 65 7.84 7.5 17 19 1019.9 0 18.0 24.9 37.0 96.8 88.8 304.7
06/05 01:50 14.1 65 7.89 7.6 17 17 1019.9 0 18.1 24.9 37.1 97.2 89.3 306.6
06/05 01:40 14 65 7.84 7.5 17 19 1020 0 18.0 24.9 37.0 96.8 88.8 304.8
06/05 01:30 14 64 7.72 7.3 15 17 1020 0 17.7 24.7 36.5 95.6 87.2 299.4
06/05 01:20 14.2 63 7.69 7.3 17 17 1020.1 0 17.6 24.6 36.3 95.1 86.6 297.3
06/05 01:10 14.3 62 7.62 7.1 15 17 1020.1 0 17.5 24.5 36.0 94.2 85.6 293.8
06/05 01:00 14.7 60 7.55 7 17 19 1020.2 0 17.3 24.2 35.6 93.0 84.3 289.3
06/05 00:50 14.9 59 7.52 7 15 17 1020.2 0 17.2 24.1 35.4 92.5 83.7 287.2
06/05 00:40 15.1 59 7.61 7.2 17 20 1020.2 0 17.4 24.2 35.6 93.2 84.7 290.4
06/05 00:30 15 59 7.57 7.1 17 19 1020.2 0 17.3 24.2 35.5 92.9 84.3 289.0
06/05 00:20 15.2 58 7.53 7 17 19 1020.3 0 17.2 24.1 35.3 92.3 83.6 286.6
06/05 00:10 15.3 58 7.57 7.1 17 19 1020.3 0 17.3 24.1 35.4 92.6 83.9 288.0
06/05 00:00 15.4 57 7.49 6.9 19 22 1020.4 0 17.1 24.0 35.0 91.6 82.9 284.1
05/05 23:50 15.3 58 7.57 7.1 17 19 1020.5 0 17.3 24.1 35.4 92.6 84.0 288.0
05/05 23:40 15.4 57 7.49 6.9 17 19 1020.6 0 17.1 24.0 35.0 91.7 82.9 284.2
05/05 23:30 15.5 57 7.53 7 17 19 1020.7 0 17.2 24.0 35.2 92.0 83.3 285.6
05/05 23:20 15.5 56 7.4 6.8 17 17 1020.8 0 17.0 23.8 34.7 90.7 81.7 280.0
05/05 23:10 15.7 55 7.36 6.7 17 19 1020.8 0 16.9 23.7 34.4 90.0 81.0 277.5
05/05 23:00 15.9 54 7.31 6.6 17 20 1020.8 0 16.7 23.6 34.2 89.3 80.1 274.7
05/05 22:50 16 54 7.36 6.7 17 20 1020.9 0 16.8 23.6 34.3 89.7 80.7 276.5
05/05 22:40 16.1 53 7.26 6.5 17 20 1021 0 16.6 23.5 33.9 88.6 79.3 271.9
05/05 22:30 16.2 53 7.31 6.6 17 22 1021 0 16.7 23.5 34.0 89.0 79.8 273.7
05/05 22:20 16.3 52 7.21 6.4 17 20 1021 0 16.5 23.3 33.6 87.9 78.5 269.1
05/05 22:10 16.5 51 7.16 6.3 17 19 1021.1 0 16.4 23.2 33.4 87.2 77.7 266.3
05/05 22:00 16.6 51 7.2 6.4 19 20 1021.1 0 16.5 23.2 33.5 87.5 78.1 267.7
05/05 21:50 16.7 50 7.11 6.2 17 19 1021.1 0 16.3 23.1 33.1 86.5 76.9 263.5
05/05 21:40 16.9 50 7.19 6.4 19 20 1021 0 16.5 23.1 33.3 87.0 77.7 266.2

Last Refresh: 06-May-2026 15:09:16

Bureau of Meteorology